createdAt,value
2022-12-11T00:00:52.642Z,-1.91
2022-12-11T00:02:24.313Z,-1.97
2022-12-11T00:03:56.004Z,-2.04
2022-12-11T00:05:27.612Z,-1.96
2022-12-11T00:06:59.178Z,-1.88
2022-12-11T00:08:30.833Z,-2.01
2022-12-11T00:10:02.399Z,-1.96
2022-12-11T00:11:33.927Z,-2.08
2022-12-11T00:13:05.662Z,-2.01
2022-12-11T00:14:37.281Z,-2.09
2022-12-11T00:16:09.550Z,-2.15
2022-12-11T00:17:41.273Z,-2.22
2022-12-11T00:19:13.233Z,-2.26
2022-12-11T00:20:44.776Z,-2.24
2022-12-11T00:22:16.359Z,-2.21
2022-12-11T00:23:47.971Z,-2.27
2022-12-11T00:25:19.532Z,-2.30
2022-12-11T00:26:51.223Z,-2.36
2022-12-11T00:28:23.506Z,-2.38
2022-12-11T00:29:55.113Z,-2.36
2022-12-11T00:31:26.808Z,-2.29
2022-12-11T00:32:59.204Z,-2.35
2022-12-11T00:34:30.745Z,-2.45
2022-12-11T00:36:02.424Z,-2.48
2022-12-11T00:37:34.145Z,-2.49
2022-12-11T00:39:06.041Z,-2.45
2022-12-11T00:40:37.656Z,-2.49
2022-12-11T00:42:09.690Z,-2.55
2022-12-11T00:43:41.343Z,-2.60
2022-12-11T00:45:13.109Z,-2.64
2022-12-11T00:46:44.885Z,-2.63
2022-12-11T00:48:16.488Z,-2.53
2022-12-11T00:49:50.012Z,-2.46
2022-12-11T00:51:22.170Z,-2.43
2022-12-11T00:52:53.806Z,-2.51
2022-12-11T00:54:25.546Z,-2.58
2022-12-11T00:55:57.374Z,-2.58
2022-12-11T00:57:28.959Z,-2.64
2022-12-11T00:59:00.567Z,-2.61
2022-12-11T01:00:32.707Z,-2.59
2022-12-11T01:02:04.317Z,-2.60
2022-12-11T01:03:36.396Z,-2.62
2022-12-11T01:05:10.360Z,-2.62
2022-12-11T01:06:42.141Z,-2.53
2022-12-11T01:08:13.757Z,-2.68
2022-12-11T01:10:04.166Z,-2.74
2022-12-11T01:11:35.826Z,-2.86
2022-12-11T01:13:07.605Z,-2.81
2022-12-11T01:14:39.206Z,-2.90
2022-12-11T01:16:14.373Z,-2.90
2022-12-11T01:17:46.009Z,-2.87
2022-12-11T01:19:17.516Z,-2.90
2022-12-11T01:20:49.210Z,-2.94
2022-12-11T01:22:21.065Z,-2.97
2022-12-11T01:23:52.885Z,-2.89
2022-12-11T01:25:25.628Z,-2.87
2022-12-11T01:26:57.274Z,-2.87
2022-12-11T01:28:28.837Z,-2.92
2022-12-11T01:30:00.459Z,-2.99
2022-12-11T01:31:32.163Z,-3.03
2022-12-11T01:33:03.916Z,-3.03
2022-12-11T01:34:35.579Z,-2.99
2022-12-11T01:36:08.847Z,-2.85
2022-12-11T01:37:40.497Z,-2.76
2022-12-11T01:39:12.178Z,-2.74
2022-12-11T01:40:54.373Z,-2.57
2022-12-11T01:42:26.327Z,-2.50
2022-12-11T01:44:05.475Z,-2.50
2022-12-11T01:45:44.728Z,-2.59
2022-12-11T01:47:17.118Z,-2.66
2022-12-11T01:48:48.776Z,-2.65
2022-12-11T01:50:20.558Z,-2.65
2022-12-11T01:52:01.451Z,-2.54
2022-12-11T01:53:41.663Z,-2.50
2022-12-11T01:55:14.688Z,-2.60
2022-12-11T01:56:49.990Z,-2.67
2022-12-11T01:58:28.402Z,-2.67
2022-12-11T02:00:00.123Z,-2.68
2022-12-11T02:01:33.670Z,-2.67
2022-12-11T02:03:05.261Z,-2.72
2022-12-11T02:04:39.022Z,-2.71
2022-12-11T02:06:39.775Z,-2.72
2022-12-11T02:08:11.891Z,-2.72
2022-12-11T02:09:46.602Z,-2.74
2022-12-11T02:11:21.938Z,-2.68
2022-12-11T02:13:04.944Z,-2.65
2022-12-11T02:14:54.411Z,-2.68
2022-12-11T02:16:31.113Z,-2.65
2022-12-11T02:18:24.804Z,-2.64
2022-12-11T02:20:18.389Z,-2.62
2022-12-11T02:21:55.441Z,-2.61
2022-12-11T02:23:32.933Z,-2.61
2022-12-11T02:25:31.338Z,-2.63
2022-12-11T02:27:44.124Z,-2.63
2022-12-11T02:29:25.235Z,-2.62
2022-12-11T02:31:10.379Z,-2.62
2022-12-11T02:32:47.686Z,-2.65
2022-12-11T02:34:25.256Z,-2.70
2022-12-11T02:35:57.348Z,-2.69
2022-12-11T02:37:32.094Z,-2.72
2022-12-11T02:39:05.778Z,-2.69
2022-12-11T02:40:40.795Z,-2.73
2022-12-11T02:42:16.372Z,-2.66
2022-12-11T02:43:50.492Z,-2.74
2022-12-11T02:45:24.317Z,-2.80
2022-12-11T02:46:56.448Z,-2.90
2022-12-11T02:48:28.107Z,-2.90
2022-12-11T02:50:02.105Z,-2.88
2022-12-11T02:51:39.084Z,-2.85
2022-12-11T02:53:13.822Z,-2.84
2022-12-11T02:54:47.225Z,-2.90
2022-12-11T02:56:36.602Z,-2.91
2022-12-11T02:58:19.725Z,-2.84
2022-12-11T02:59:51.514Z,-2.78
2022-12-11T03:01:23.381Z,-2.73
2022-12-11T03:02:55.278Z,-2.70
2022-12-11T03:04:26.971Z,-2.66
2022-12-11T03:05:58.616Z,-2.55
2022-12-11T03:07:36.116Z,-2.55
2022-12-11T03:09:08.183Z,-2.57
2022-12-11T03:10:39.863Z,-2.57
2022-12-11T03:12:17.100Z,-2.61
2022-12-11T03:13:48.900Z,-2.56
2022-12-11T03:15:23.145Z,-2.56
2022-12-11T03:17:12.107Z,-2.48
2022-12-11T03:18:58.736Z,-2.61
2022-12-11T03:20:36.824Z,-2.62
2022-12-11T03:22:20.951Z,-2.52
2022-12-11T03:24:05.192Z,-2.45
2022-12-11T03:25:43.543Z,-2.51
2022-12-11T03:27:23.838Z,-2.57
2022-12-11T03:29:03.072Z,-2.62
2022-12-11T03:30:37.131Z,-2.66
2022-12-11T03:32:13.991Z,-2.77
2022-12-11T03:33:50.477Z,-2.86
2022-12-11T03:35:45.360Z,-2.90
2022-12-11T03:37:17.822Z,-3.01
2022-12-11T03:39:12.804Z,-3.08
2022-12-11T03:40:49.268Z,-3.15
2022-12-11T03:42:23.513Z,-3.15
2022-12-11T03:43:58.443Z,-3.20
2022-12-11T03:45:30.409Z,-3.28
2022-12-11T03:47:05.976Z,-3.10
2022-12-11T03:48:41.772Z,-3.25
2022-12-11T03:50:16.374Z,-3.21
2022-12-11T03:51:51.362Z,-3.34
2022-12-11T03:53:25.728Z,-3.38
2022-12-11T03:55:00.961Z,-3.42
2022-12-11T03:56:35.642Z,-3.53
2022-12-11T03:58:07.705Z,-3.51
2022-12-11T03:59:39.556Z,-3.53
2022-12-11T04:01:11.618Z,-3.48
2022-12-11T04:02:44.612Z,-3.55
2022-12-11T04:04:16.360Z,-3.55
2022-12-11T04:05:50.185Z,-3.53
2022-12-11T04:07:21.892Z,-3.53
2022-12-11T04:08:53.377Z,-3.53
2022-12-11T04:10:24.990Z,-3.43
2022-12-11T04:11:56.570Z,-3.44
2022-12-11T04:13:28.163Z,-3.45
2022-12-11T04:15:02.367Z,-3.56
2022-12-11T04:16:34.147Z,-3.51
2022-12-11T04:18:26.237Z,-3.63
2022-12-11T04:20:16.468Z,-3.64
2022-12-11T04:22:06.278Z,-3.69
2022-12-11T04:23:56.432Z,-3.53
2022-12-11T04:25:27.985Z,-3.40
2022-12-11T04:26:59.846Z,-3.52
2022-12-11T04:28:31.465Z,-3.64
2022-12-11T04:30:06.644Z,-3.75
2022-12-11T04:31:38.212Z,-3.82
2022-12-11T04:33:09.782Z,-3.87
2022-12-11T04:34:41.398Z,-3.84
2022-12-11T04:36:14.115Z,-3.84
2022-12-11T04:37:46.173Z,-3.83
2022-12-11T04:39:17.779Z,-3.82
2022-12-11T04:40:49.339Z,-3.74
2022-12-11T04:42:20.914Z,-3.67
2022-12-11T04:43:52.497Z,-3.69
2022-12-11T04:45:24.156Z,-3.68
2022-12-11T04:46:55.726Z,-3.73
2022-12-11T04:48:27.269Z,-3.73
2022-12-11T04:49:58.844Z,-3.70
2022-12-11T04:51:30.756Z,-3.74
2022-12-11T04:53:02.355Z,-3.70
2022-12-11T04:54:34.024Z,-3.69
2022-12-11T04:56:07.502Z,-3.69
2022-12-11T04:57:39.273Z,-3.58
2022-12-11T04:59:10.877Z,-3.56
2022-12-11T05:00:42.711Z,-3.55
2022-12-11T05:02:15.666Z,-3.48
2022-12-11T05:03:48.058Z,-3.46
2022-12-11T05:05:19.672Z,-3.42
2022-12-11T05:06:51.357Z,-3.39
2022-12-11T05:08:22.975Z,-3.43
2022-12-11T05:09:54.559Z,-3.48
2022-12-11T05:11:26.088Z,-3.63
2022-12-11T05:12:57.682Z,-3.66
2022-12-11T05:14:31.921Z,-3.63
2022-12-11T05:16:05.710Z,-3.59
2022-12-11T05:17:37.622Z,-3.53
2022-12-11T05:19:09.427Z,-3.46
2022-12-11T05:20:41.049Z,-3.48
2022-12-11T05:22:12.593Z,-3.40
2022-12-11T05:23:44.306Z,-3.50
2022-12-11T05:25:15.846Z,-3.55
2022-12-11T05:26:47.421Z,-3.58
2022-12-11T05:28:18.990Z,-3.56
2022-12-11T05:29:53.655Z,-3.59
2022-12-11T05:31:29.441Z,-3.66
2022-12-11T05:33:01.052Z,-3.65
2022-12-11T05:34:32.975Z,-3.61
2022-12-11T05:36:04.886Z,-3.56
2022-12-11T05:37:36.432Z,-3.50
2022-12-11T05:39:08.039Z,-3.60
2022-12-11T05:40:39.761Z,-3.53
2022-12-11T05:42:11.377Z,-3.58
2022-12-11T05:43:43.337Z,-3.57
2022-12-11T05:45:14.974Z,-3.54
2022-12-11T05:46:46.545Z,-3.63
2022-12-11T05:48:18.163Z,-3.71
2022-12-11T05:49:49.813Z,-3.73
2022-12-11T05:51:21.721Z,-3.78
2022-12-11T05:52:53.250Z,-3.83
2022-12-11T05:54:24.831Z,-3.79
2022-12-11T05:56:02.346Z,-3.75
2022-12-11T05:57:34.008Z,-3.76
2022-12-11T05:59:06.553Z,-3.73
2022-12-11T06:00:41.101Z,-3.72
2022-12-11T06:02:13.141Z,-3.68
2022-12-11T06:03:44.831Z,-3.65
2022-12-11T06:05:16.574Z,-3.77
2022-12-11T06:06:48.157Z,-3.77
2022-12-11T06:08:19.700Z,-3.91
2022-12-11T06:09:51.311Z,-4.05
2022-12-11T06:11:24.452Z,-4.14
2022-12-11T06:12:56.073Z,-4.21
2022-12-11T06:14:27.621Z,-4.25
2022-12-11T06:16:04.905Z,-4.10
2022-12-11T06:17:36.576Z,-3.90
2022-12-11T06:19:17.942Z,-4.02
2022-12-11T06:20:49.597Z,-4.06
2022-12-11T06:22:21.125Z,-4.12
2022-12-11T06:23:54.915Z,-4.05
2022-12-11T06:25:26.538Z,-4.09
2022-12-11T06:26:58.419Z,-4.14
2022-12-11T06:28:30.029Z,-4.23
2022-12-11T06:30:01.754Z,-4.24
2022-12-11T06:31:33.459Z,-4.23
2022-12-11T06:33:05.114Z,-4.28
2022-12-11T06:34:36.841Z,-4.24
2022-12-11T06:36:13.770Z,-4.28
2022-12-11T06:37:45.381Z,-4.32
2022-12-11T06:39:16.951Z,-4.40
2022-12-11T06:40:55.990Z,-4.25
2022-12-11T06:42:29.894Z,-4.30
2022-12-11T06:44:01.468Z,-4.38
2022-12-11T06:45:33.214Z,-4.41
2022-12-11T06:47:05.406Z,-4.34
2022-12-11T06:48:37.903Z,-4.34
2022-12-11T06:50:09.868Z,-4.36
2022-12-11T06:51:41.371Z,-4.41
2022-12-11T06:53:14.948Z,-4.43
2022-12-11T06:54:46.569Z,-4.44
2022-12-11T06:56:18.257Z,-4.45
2022-12-11T06:57:49.919Z,-4.52
2022-12-11T06:59:21.560Z,-4.55
2022-12-11T07:00:53.144Z,-4.59
2022-12-11T07:02:24.743Z,-4.52
2022-12-11T07:03:58.845Z,-4.47
2022-12-11T07:05:31.333Z,-4.38
2022-12-11T07:07:02.871Z,-4.48
2022-12-11T07:08:34.965Z,-4.56
2022-12-11T07:10:08.612Z,-4.57
2022-12-11T07:11:40.425Z,-4.57
2022-12-11T07:13:12.079Z,-4.62
2022-12-11T07:14:43.616Z,-4.61
2022-12-11T07:16:16.408Z,-4.59
2022-12-11T07:17:48.069Z,-4.48
2022-12-11T07:19:19.622Z,-4.47
2022-12-11T07:20:51.205Z,-4.46
2022-12-11T07:22:22.942Z,-4.47
2022-12-11T07:23:54.618Z,-4.53
2022-12-11T07:25:26.182Z,-4.56
2022-12-11T07:26:57.745Z,-4.59
2022-12-11T07:28:29.333Z,-4.61
2022-12-11T07:30:00.918Z,-4.55
2022-12-11T07:31:32.629Z,-4.44
2022-12-11T07:33:04.343Z,-4.51
2022-12-11T07:34:36.116Z,-4.49
2022-12-11T07:36:10.239Z,-4.46
2022-12-11T07:37:41.793Z,-4.43
2022-12-11T07:39:13.499Z,-4.32
2022-12-11T07:40:45.126Z,-4.34
2022-12-11T07:42:16.839Z,-4.32
2022-12-11T07:43:48.553Z,-4.27
2022-12-11T07:45:20.172Z,-4.23
2022-12-11T07:46:51.765Z,-4.22
2022-12-11T07:48:23.366Z,-4.20
2022-12-11T07:49:54.923Z,-4.20
2022-12-11T07:51:29.336Z,-4.20
2022-12-11T07:53:00.882Z,-4.15
2022-12-11T07:54:32.513Z,-4.13
2022-12-11T07:56:04.556Z,-4.15
2022-12-11T07:57:36.352Z,-4.18
2022-12-11T07:59:08.319Z,-4.19
2022-12-11T08:00:39.997Z,-4.19
2022-12-11T08:02:12.032Z,-4.19
2022-12-11T08:03:43.991Z,-4.14
2022-12-11T08:05:15.617Z,-4.10
2022-12-11T08:06:47.702Z,-4.06
2022-12-11T08:08:20.196Z,-3.95
2022-12-11T08:09:51.871Z,-3.89
2022-12-11T08:11:24.003Z,-3.86
2022-12-11T08:12:55.532Z,-3.89
2022-12-11T08:14:27.070Z,-3.95
2022-12-11T08:15:59.561Z,-4.00
2022-12-11T08:17:36.652Z,-3.99
2022-12-11T08:19:12.269Z,-3.95
2022-12-11T08:20:43.836Z,-3.95
2022-12-11T08:22:16.396Z,-3.94
2022-12-11T08:23:48.892Z,-3.96
2022-12-11T08:25:20.493Z,-3.97
2022-12-11T08:26:52.149Z,-4.01
2022-12-11T08:28:23.687Z,-3.99
2022-12-11T08:29:55.196Z,-4.00
2022-12-11T08:31:27.605Z,-3.91
2022-12-11T08:32:59.848Z,-3.97
2022-12-11T08:34:31.433Z,-3.97
2022-12-11T08:36:04.939Z,-3.98
2022-12-11T08:37:36.588Z,-3.95
2022-12-11T08:39:08.263Z,-3.94
2022-12-11T08:40:39.857Z,-3.88
2022-12-11T08:42:11.480Z,-3.85
2022-12-11T08:43:44.030Z,-3.84
2022-12-11T08:45:24.896Z,-3.81
2022-12-11T08:46:56.559Z,-3.75
2022-12-11T08:48:28.140Z,-3.68
2022-12-11T08:49:59.716Z,-3.64
2022-12-11T08:51:31.530Z,-3.62
2022-12-11T08:53:03.242Z,-3.51
2022-12-11T08:54:36.374Z,-3.29
2022-12-11T08:56:16.568Z,-3.04
2022-12-11T08:57:48.136Z,-2.89
2022-12-11T08:59:19.722Z,-2.48
2022-12-11T09:00:51.318Z,-2.21
2022-12-11T09:02:22.990Z,-1.95
2022-12-11T09:03:56.480Z,-1.78
2022-12-11T09:05:28.026Z,-1.92
2022-12-11T09:06:59.542Z,-1.86
2022-12-11T09:08:31.200Z,-1.98
2022-12-11T09:10:03.914Z,-2.04
2022-12-11T09:11:37.866Z,-2.24
2022-12-11T09:13:09.470Z,-2.30
2022-12-11T09:14:41.061Z,-2.36
2022-12-11T09:16:15.600Z,-2.50
2022-12-11T09:17:47.199Z,-2.46
2022-12-11T09:19:18.877Z,-2.34
2022-12-11T09:20:58.738Z,-2.27
2022-12-11T09:22:33.410Z,-2.31
2022-12-11T09:24:05.747Z,-2.36
2022-12-11T09:25:40.532Z,-2.26
2022-12-11T09:27:12.072Z,-2.18
2022-12-11T09:28:46.610Z,-2.11
2022-12-11T09:30:18.761Z,-2.03
2022-12-11T09:31:50.366Z,-2.04
2022-12-11T09:33:22.072Z,-2.06
2022-12-11T09:34:53.951Z,-2.03
2022-12-11T09:36:26.164Z,-2.01
2022-12-11T09:37:57.997Z,-1.97
2022-12-11T09:39:30.126Z,-1.98
2022-12-11T09:41:02.704Z,-1.91
2022-12-11T09:43:06.710Z,-1.92
2022-12-11T09:44:42.208Z,-1.89
2022-12-11T09:46:16.544Z,-1.83
2022-12-11T09:47:52.961Z,-1.76
2022-12-11T09:49:35.104Z,-1.73
2022-12-11T09:51:23.254Z,-1.74
2022-12-11T09:53:09.432Z,-1.64
2022-12-11T09:54:50.096Z,-1.62
2022-12-11T09:56:34.617Z,-1.62
2022-12-11T09:58:27.798Z,-1.60
2022-12-11T10:00:05.966Z,-1.49
2022-12-11T10:01:46.466Z,-1.48
2022-12-11T10:03:26.869Z,-1.53
2022-12-11T10:05:22.485Z,-1.59
2022-12-11T10:06:54.042Z,-1.60
2022-12-11T10:08:50.618Z,-1.57
2022-12-11T10:10:47.077Z,-1.45
2022-12-11T10:12:40.068Z,-1.45
2022-12-11T10:14:17.366Z,-1.49
2022-12-11T10:16:03.883Z,-1.44
2022-12-11T10:17:38.667Z,-1.37
2022-12-11T10:19:19.387Z,-1.33
2022-12-11T10:20:52.997Z,-1.27
2022-12-11T10:22:29.879Z,-1.42
2022-12-11T10:24:05.734Z,-1.55
2022-12-11T10:25:42.316Z,-1.37
2022-12-11T10:27:22.041Z,-1.35
2022-12-11T10:28:54.385Z,-1.39
2022-12-11T10:30:34.726Z,-1.46
2022-12-11T10:32:16.137Z,-1.37
2022-12-11T10:33:53.796Z,-1.29
2022-12-11T10:35:53.442Z,-1.16
2022-12-11T10:37:25.329Z,-1.23
2022-12-11T10:38:57.973Z,-1.21
2022-12-11T10:40:32.402Z,-1.23
2022-12-11T10:42:19.290Z,-1.08
2022-12-11T10:43:53.290Z,-1.00
2022-12-11T10:45:25.029Z,-0.93
2022-12-11T10:47:18.092Z,-0.91
2022-12-11T10:48:55.860Z,-0.84
2022-12-11T10:50:27.552Z,-0.77
2022-12-11T10:52:02.238Z,-0.76
2022-12-11T10:53:34.923Z,-0.74
2022-12-11T10:55:34.673Z,-0.73
2022-12-11T10:57:08.891Z,-0.62
2022-12-11T10:58:49.234Z,-0.60
2022-12-11T11:00:34.645Z,-0.61
2022-12-11T11:02:18.306Z,-0.55
2022-12-11T11:03:58.947Z,-0.49
2022-12-11T11:05:36.130Z,-0.49
2022-12-11T11:07:16.965Z,-0.49
2022-12-11T11:08:51.160Z,-0.32
2022-12-11T11:10:22.787Z,-0.23
2022-12-11T11:11:54.667Z,-0.14
2022-12-11T11:13:28.860Z,-0.16
2022-12-11T11:15:07.533Z,-0.01
2022-12-11T11:16:41.403Z,0.05
2022-12-11T11:18:23.850Z,0.07
2022-12-11T11:19:57.920Z,0.13
2022-12-11T11:21:31.888Z,0.34
2022-12-11T11:23:14.144Z,0.55
2022-12-11T11:24:56.543Z,0.56
2022-12-11T11:27:04.386Z,0.46
2022-12-11T11:28:34.359Z,0.21
2022-12-11T11:30:22.691Z,0.41
2022-12-11T11:31:54.654Z,0.41
2022-12-11T11:33:26.736Z,0.29
2022-12-11T11:35:29.039Z,0.55
2022-12-11T11:37:05.651Z,0.41
2022-12-11T11:38:49.892Z,0.29
2022-12-11T11:40:37.038Z,0.38
2022-12-11T11:42:27.858Z,0.51
2022-12-11T11:44:02.404Z,0.69
2022-12-11T11:46:20.535Z,0.69
2022-12-11T11:48:18.158Z,0.18
2022-12-11T11:49:55.916Z,-0.19
2022-12-11T11:51:36.008Z,-0.41
2022-12-11T11:53:20.312Z,-0.42
2022-12-11T11:55:24.450Z,-0.35
2022-12-11T11:56:57.296Z,-0.26
2022-12-11T11:58:57.566Z,-0.39
2022-12-11T12:00:33.940Z,-0.43
2022-12-11T12:02:14.991Z,-0.54
2022-12-11T12:03:49.315Z,-0.44
2022-12-11T12:05:35.553Z,-0.17
2022-12-11T12:07:32.600Z,0.13
2022-12-11T12:09:16.939Z,0.44
2022-12-11T12:10:59.915Z,0.54
2022-12-11T12:12:40.870Z,0.13
2022-12-11T12:14:50.725Z,-0.03
2022-12-11T12:16:53.637Z,0.02
2022-12-11T12:19:03.936Z,-0.09
2022-12-11T12:20:50.959Z,-0.10
2022-12-11T12:22:47.367Z,-0.17
2022-12-11T12:24:28.382Z,-0.03
2022-12-11T12:26:15.176Z,-0.09
2022-12-11T12:28:19.922Z,-0.32
2022-12-11T12:30:04.675Z,-0.31
2022-12-11T12:31:49.705Z,-0.25
2022-12-11T12:33:22.035Z,-0.09
2022-12-11T12:35:08.756Z,-0.11
2022-12-11T12:36:55.007Z,-0.16
2022-12-11T12:38:50.370Z,0.04
2022-12-11T12:40:28.514Z,-0.05
2022-12-11T12:42:26.886Z,0.24
2022-12-11T12:44:13.756Z,0.37
2022-12-11T12:45:48.302Z,0.31
2022-12-11T12:47:21.967Z,0.43
2022-12-11T12:48:56.159Z,0.51
2022-12-11T12:50:44.093Z,0.53
2022-12-11T12:52:37.481Z,0.62
2022-12-11T12:54:14.826Z,0.54
2022-12-11T12:55:48.554Z,0.55
2022-12-11T12:57:21.305Z,0.44
2022-12-11T12:58:53.073Z,0.42
2022-12-11T13:00:37.702Z,0.49
2022-12-11T13:02:16.519Z,0.45
2022-12-11T13:04:06.520Z,0.60
2022-12-11T13:05:43.747Z,0.61
2022-12-11T13:07:24.694Z,0.64
2022-12-11T13:08:57.062Z,0.70
2022-12-11T13:10:34.805Z,0.52
2022-12-11T13:12:16.156Z,0.41
2022-12-11T13:14:03.371Z,0.26
2022-12-11T13:15:46.127Z,0.17
2022-12-11T13:17:21.181Z,0.16
2022-12-11T13:18:54.891Z,0.08
2022-12-11T13:20:30.566Z,0.10
2022-12-11T13:22:05.000Z,0.23
2022-12-11T13:23:40.424Z,0.37
2022-12-11T13:25:28.102Z,0.26
2022-12-11T13:27:25.451Z,0.26
2022-12-11T13:28:58.849Z,0.33
2022-12-11T13:30:31.921Z,0.32
2022-12-11T13:32:22.214Z,0.34
2022-12-11T13:33:57.246Z,0.34
2022-12-11T13:35:31.301Z,0.14
2022-12-11T13:37:04.855Z,0.18
2022-12-11T13:38:39.100Z,0.18
2022-12-11T13:40:26.866Z,0.27
2022-12-11T13:42:02.337Z,0.32
2022-12-11T13:43:34.290Z,0.37
2022-12-11T13:45:08.578Z,0.30
2022-12-11T13:46:41.466Z,0.32
2022-12-11T13:48:21.475Z,0.26
2022-12-11T13:49:59.864Z,0.11
2022-12-11T13:51:35.231Z,-0.05
2022-12-11T13:53:07.824Z,-0.11
2022-12-11T13:54:49.159Z,-0.14
2022-12-11T13:56:23.365Z,-0.04
2022-12-11T13:57:55.790Z,-0.02
2022-12-11T13:59:32.930Z,-0.05
2022-12-11T14:01:11.381Z,-0.01
2022-12-11T14:02:43.748Z,0.08
2022-12-11T14:04:19.815Z,0.21
2022-12-11T14:05:51.646Z,0.33
2022-12-11T14:07:30.682Z,0.35
2022-12-11T14:09:07.350Z,0.35
2022-12-11T14:10:40.141Z,0.45
2022-12-11T14:12:21.849Z,0.37
2022-12-11T14:13:56.133Z,0.44
2022-12-11T14:15:30.150Z,0.43
2022-12-11T14:17:02.095Z,0.35
2022-12-11T14:18:36.618Z,0.30
2022-12-11T14:20:18.720Z,0.20
2022-12-11T14:22:01.962Z,0.10
2022-12-11T14:23:36.354Z,0.04
2022-12-11T14:25:21.787Z,0.03
2022-12-11T14:26:54.779Z,-0.04
2022-12-11T14:28:28.253Z,0.01
2022-12-11T14:30:10.716Z,0.07
2022-12-11T14:31:44.595Z,0.14
2022-12-11T14:33:17.626Z,0.19
2022-12-11T14:34:51.481Z,0.15
2022-12-11T14:36:23.830Z,0.02
2022-12-11T14:37:58.367Z,-0.05
2022-12-11T14:39:41.259Z,-0.08
2022-12-11T14:41:25.381Z,-0.14
2022-12-11T14:43:01.291Z,-0.18
2022-12-11T14:44:51.913Z,-0.27
2022-12-11T14:46:40.325Z,-0.33
2022-12-11T14:48:22.639Z,-0.40
2022-12-11T14:50:05.925Z,-0.37
2022-12-11T14:51:41.130Z,-0.34
2022-12-11T14:53:23.440Z,-0.37
2022-12-11T14:55:01.548Z,-0.37
2022-12-11T14:56:33.893Z,-0.34
2022-12-11T14:58:14.656Z,-0.19
2022-12-11T14:59:47.991Z,-0.23
2022-12-11T15:01:32.386Z,-0.30
2022-12-11T15:03:22.748Z,-0.33
2022-12-11T15:05:11.351Z,-0.31
2022-12-11T15:06:48.401Z,-0.30
2022-12-11T15:08:26.111Z,-0.29
2022-12-11T15:09:58.561Z,-0.31
2022-12-11T15:11:32.059Z,-0.22
2022-12-11T15:13:05.894Z,-0.27
2022-12-11T15:14:56.128Z,-0.31
2022-12-11T15:16:31.679Z,-0.35
2022-12-11T15:18:08.332Z,-0.33
2022-12-11T15:19:40.688Z,-0.37
2022-12-11T15:21:12.769Z,-0.38
2022-12-11T15:22:44.758Z,-0.43
2022-12-11T15:24:40.109Z,-0.34
2022-12-11T15:26:12.088Z,-0.41
2022-12-11T15:27:43.801Z,-0.38
2022-12-11T15:29:37.699Z,-0.41
2022-12-11T15:31:25.006Z,-0.38
2022-12-11T15:33:12.907Z,-0.42
2022-12-11T15:34:52.439Z,-0.48
2022-12-11T15:36:35.132Z,-0.50
2022-12-11T15:38:07.029Z,-0.53
2022-12-11T15:39:38.674Z,-0.56
2022-12-11T15:41:16.683Z,-0.60
2022-12-11T15:42:49.317Z,-0.65
2022-12-11T15:44:23.597Z,-0.68
2022-12-11T15:45:55.541Z,-0.68
2022-12-11T15:47:29.816Z,-0.71
2022-12-11T15:49:01.483Z,-0.71
2022-12-11T15:50:33.079Z,-0.70
2022-12-11T15:52:04.980Z,-0.65
2022-12-11T15:53:36.852Z,-0.70
2022-12-11T15:55:08.950Z,-0.74
2022-12-11T15:56:40.896Z,-0.76
2022-12-11T15:58:19.578Z,-0.75
2022-12-11T15:59:54.094Z,-0.76
2022-12-11T16:01:25.756Z,-0.69
2022-12-11T16:02:58.097Z,-0.67
2022-12-11T16:04:29.871Z,-0.68
2022-12-11T16:06:01.615Z,-0.70
2022-12-11T16:07:33.662Z,-0.73
2022-12-11T16:09:05.688Z,-0.75
2022-12-11T16:10:37.583Z,-0.74
2022-12-11T16:12:09.553Z,-0.74
2022-12-11T16:13:41.174Z,-0.74
2022-12-11T16:15:19.895Z,-0.79
2022-12-11T16:16:54.600Z,-0.83
2022-12-11T16:18:26.800Z,-0.81
2022-12-11T16:19:58.403Z,-0.81
2022-12-11T16:21:30.080Z,-0.82
2022-12-11T16:23:01.852Z,-0.79
2022-12-11T16:24:33.486Z,-0.77
2022-12-11T16:26:09.896Z,-0.72
2022-12-11T16:27:41.642Z,-0.84
2022-12-11T16:29:13.305Z,-0.74
2022-12-11T16:30:45.393Z,-0.74
2022-12-11T16:32:17.223Z,-0.79
2022-12-11T16:33:48.838Z,-0.95
2022-12-11T16:35:21.677Z,-1.00
2022-12-11T16:36:53.348Z,-0.90
2022-12-11T16:38:25.090Z,-0.87
2022-12-11T16:39:56.786Z,-0.98
2022-12-11T16:41:28.328Z,-1.03
2022-12-11T16:43:01.089Z,-1.05
2022-12-11T16:44:33.365Z,-1.03
2022-12-11T16:46:05.241Z,-1.05
2022-12-11T16:47:36.809Z,-1.12
2022-12-11T16:49:08.835Z,-1.11
2022-12-11T16:50:40.533Z,-1.09
2022-12-11T16:52:13.034Z,-1.10
2022-12-11T16:53:46.880Z,-1.07
2022-12-11T16:55:22.109Z,-1.04
2022-12-11T16:56:53.968Z,-1.11
2022-12-11T16:58:25.576Z,-1.11
2022-12-11T16:59:57.287Z,-1.05
2022-12-11T17:01:29.105Z,-1.03
2022-12-11T17:03:01.566Z,-1.08
2022-12-11T17:04:33.276Z,-1.08
2022-12-11T17:06:14.883Z,-1.11
2022-12-11T17:07:46.875Z,-1.09
2022-12-11T17:09:19.048Z,-1.09
2022-12-11T17:10:51.895Z,-1.12
2022-12-11T17:12:27.815Z,-1.15
2022-12-11T17:14:00.664Z,-1.22
2022-12-11T17:15:32.621Z,-1.22
2022-12-11T17:17:04.550Z,-1.25
2022-12-11T17:18:36.505Z,-1.23
2022-12-11T17:20:09.566Z,-1.23
2022-12-11T17:21:41.373Z,-1.24
2022-12-11T17:23:13.590Z,-1.24
2022-12-11T17:24:45.239Z,-1.17
2022-12-11T17:26:17.391Z,-1.14
2022-12-11T17:27:49.923Z,-1.13
2022-12-11T17:29:22.015Z,-1.10
2022-12-11T17:30:53.749Z,-1.08
2022-12-11T17:32:25.350Z,-1.05
2022-12-11T17:34:00.594Z,-1.04
2022-12-11T17:35:33.161Z,-1.05
2022-12-11T17:37:05.495Z,-1.07
2022-12-11T17:38:37.392Z,-1.08
2022-12-11T17:40:09.641Z,-0.99
2022-12-11T17:41:41.605Z,-1.09
2022-12-11T17:43:14.207Z,-1.14
2022-12-11T17:44:46.321Z,-1.17
2022-12-11T17:46:19.035Z,-1.14
2022-12-11T17:47:50.824Z,-1.15
2022-12-11T17:49:22.481Z,-1.02
2022-12-11T17:50:54.292Z,-1.10
2022-12-11T17:52:32.351Z,-1.13
2022-12-11T17:54:06.197Z,-1.16
2022-12-11T17:55:42.689Z,-1.14
2022-12-11T17:57:14.506Z,-1.17
2022-12-11T17:58:46.397Z,-1.23
2022-12-11T18:00:18.402Z,-1.26
2022-12-11T18:01:50.449Z,-1.29
2022-12-11T18:03:22.842Z,-1.33
2022-12-11T18:04:55.053Z,-1.35
2022-12-11T18:06:27.410Z,-1.43
2022-12-11T18:07:59.434Z,-1.49
2022-12-11T18:09:31.104Z,-1.55
2022-12-11T18:11:15.513Z,-1.57
2022-12-11T18:12:47.186Z,-1.65
2022-12-11T18:14:19.039Z,-1.70
2022-12-11T18:16:16.867Z,-1.66
2022-12-11T18:17:48.605Z,-1.69
2022-12-11T18:19:22.179Z,-1.70
2022-12-11T18:20:53.902Z,-1.77
2022-12-11T18:22:25.753Z,-1.86
2022-12-11T18:24:00.344Z,-1.91
2022-12-11T18:25:32.963Z,-1.97
2022-12-11T18:27:05.065Z,-2.02
2022-12-11T18:28:37.024Z,-2.08
2022-12-11T18:30:09.556Z,-2.11
2022-12-11T18:31:42.885Z,-2.12
2022-12-11T18:33:15.005Z,-2.16
2022-12-11T18:34:46.807Z,-2.16
2022-12-11T18:36:20.225Z,-2.21
2022-12-11T18:37:53.279Z,-2.22
2022-12-11T18:39:26.193Z,-2.28
2022-12-11T18:40:59.064Z,-2.29
2022-12-11T18:42:33.326Z,-2.37
2022-12-11T18:44:09.733Z,-2.34
2022-12-11T18:45:45.961Z,-2.36
2022-12-11T18:47:18.030Z,-2.40
2022-12-11T18:48:50.559Z,-2.41
2022-12-11T18:50:22.307Z,-2.47
2022-12-11T18:51:54.290Z,-2.52
2022-12-11T18:53:26.120Z,-2.43
2022-12-11T18:54:57.757Z,-2.41
2022-12-11T18:56:29.503Z,-2.40
2022-12-11T18:58:01.281Z,-2.42
2022-12-11T18:59:33.933Z,-2.39
2022-12-11T19:01:11.667Z,-2.50
2022-12-11T19:02:43.699Z,-2.52
2022-12-11T19:04:15.720Z,-2.57
2022-12-11T19:05:47.459Z,-2.54
2022-12-11T19:07:19.281Z,-2.54
2022-12-11T19:08:52.100Z,-2.61
2022-12-11T19:10:25.239Z,-2.68
2022-12-11T19:11:58.295Z,-2.71
2022-12-11T19:13:30.547Z,-2.65
2022-12-11T19:15:02.927Z,-2.66
2022-12-11T19:16:39.340Z,-2.66
2022-12-11T19:18:11.429Z,-2.70
2022-12-11T19:19:46.187Z,-2.64
2022-12-11T19:21:19.058Z,-2.71
2022-12-11T19:22:51.774Z,-2.70
2022-12-11T19:24:24.505Z,-2.81
2022-12-11T19:25:56.159Z,-2.87
2022-12-11T19:27:28.818Z,-2.93
2022-12-11T19:29:00.841Z,-2.88
2022-12-11T19:30:32.678Z,-2.91
2022-12-11T19:32:05.475Z,-2.83
2022-12-11T19:33:39.185Z,-2.85
2022-12-11T19:35:13.960Z,-2.90
2022-12-11T19:36:45.913Z,-2.95
2022-12-11T19:38:17.664Z,-3.01
2022-12-11T19:39:50.648Z,-3.05
2022-12-11T19:41:27.902Z,-3.10
2022-12-11T19:42:59.968Z,-3.16
2022-12-11T19:44:33.173Z,-3.19
2022-12-11T19:46:08.092Z,-3.14
2022-12-11T19:47:39.960Z,-3.16
2022-12-11T19:49:12.309Z,-3.17
2022-12-11T19:50:44.998Z,-3.15
2022-12-11T19:52:18.155Z,-3.14
2022-12-11T19:53:52.382Z,-3.08
2022-12-11T19:55:25.289Z,-3.15
2022-12-11T19:56:57.797Z,-3.23
2022-12-11T19:58:29.945Z,-3.27
2022-12-11T20:00:02.240Z,-3.29
2022-12-11T20:01:46.950Z,-3.36
2022-12-11T20:03:18.751Z,-3.36
2022-12-11T20:04:50.694Z,-3.35
2022-12-11T20:06:22.883Z,-3.33
2022-12-11T20:07:54.622Z,-3.38
2022-12-11T20:09:26.484Z,-3.43
2022-12-11T20:11:06.502Z,-3.43
2022-12-11T20:12:40.385Z,-3.26
2022-12-11T20:14:20.114Z,-3.25
2022-12-11T20:15:51.839Z,-3.30
2022-12-11T20:17:24.253Z,-3.48
2022-12-11T20:18:57.303Z,-3.57
2022-12-11T20:20:29.836Z,-3.60
2022-12-11T20:22:01.495Z,-3.66
2022-12-11T20:23:33.817Z,-3.60
2022-12-11T20:25:05.985Z,-3.65
2022-12-11T20:26:38.340Z,-3.68
2022-12-11T20:28:10.166Z,-3.67
2022-12-11T20:29:45.809Z,-3.73
2022-12-11T20:31:21.826Z,-3.75
2022-12-11T20:32:55.046Z,-3.76
2022-12-11T20:34:27.289Z,-3.73
2022-12-11T20:35:58.986Z,-3.79